• Join FlightAware (Why Join?)
  • Login
  • US Flag 
05:45PM EDT


 

Airport Tracker/Info


-or-


 

Live Flight TrackerFlight Track Log ✈ N7311J ✈ 08-Aug-2013 ✈ KJST - 7B9

Flight Track Log - Related Links

Times and Time Zones

All times are in EDT time to prevent confusion due to time zone crossing. See the N7311J flight status page for this flight to view local times or setup timezone preferences in your user account.

Time Position Orientation Groundspeed Altitude Reporting Facility
EDT Latitude Longitude Course Direction KTS MPH feet Rate Location/Type
10:45AM 40.3011 -78.7892 80° East 71 82 3,700  Level Cleveland Center
10:46AM 40.3069 -78.7617 74° East 77 89 4,100 360 Climbing Cleveland Center
10:47AM 40.3169 -78.7369 62° Northeast 74 85 4,500 360 Climbing Cleveland Center
10:48AM 40.3314 -78.7228 37° Northeast 75 86 4,900 360 Climbing Cleveland Center
10:49AM 40.3411 -78.6844 72° East 81 93 5,300 360 Climbing Cleveland Center
10:50AM 40.3533 -78.6625 54° Northeast 75 86 5,700 360 Climbing Cleveland Center
10:51AM 40.3592 -78.6378 73° East 70 81 6,100 360 Climbing Cleveland Center
10:52AM 40.3650 -78.6131 73° East 70 81 6,500 300 Climbing Cleveland Center
10:53AM 40.3769 -78.5881 58° Northeast 70 81 6,800 300 Climbing Cleveland Center
10:54AM 40.3850 -78.5633 67° East 70 81 7,200 300 Climbing Cleveland Center
10:55AM 40.3947 -78.5358 65° Northeast 70 81 7,500 300 Climbing Cleveland Center
10:56AM 40.4047 -78.5081 65° Northeast 70 81 7,800 300 Climbing Cleveland Center
10:57AM 40.4125 -78.4806 70° East 70 81 8,100 240 Climbing Cleveland Center
10:58AM 40.4206 -78.4558 67° East 70 81 8,300 120 Climbing Cleveland Center
11:00AM 40.4381 -78.4044 66° East 87 100 8,600 120 Climbing New York Center
11:01AM 40.4481 -78.3783 63° Northeast 87 100 8,800 120 Climbing New York Center
11:02AM 40.4603 -78.3497 61° Northeast 87 100 8,900  Climbing New York Center
11:03AM 40.4728 -78.3156 64° Northeast 92 106 8,900  Level New York Center
11:04AM 40.4858 -78.2733 68° East 103 119 9,000  Climbing New York Center
11:05AM 40.4992 -78.2283 69° East 109 125 8,900 -60 Descending New York Center
11:06AM 40.5100 -78.1911 69° East 114 131 8,900  Level New York Center
11:07AM 40.5228 -78.1517 67° East 109 125 8,900  Level New York Center
11:08AM 40.5356 -78.1147 66° East 109 125 8,900  Level New York Center
11:09AM 40.5483 -78.0778 66° East 109 125 8,900  Level New York Center
11:10AM 40.5611 -78.0381 67° East 109 125 8,900  Level New York Center
11:11AM 40.5719 -77.9983 70° East 109 125 8,900  Level New York Center
11:12AM 40.5825 -77.9583 71° East 109 125 8,900  Level New York Center
11:13AM 40.5950 -77.9242 64° Northeast 109 125 8,900  Level New York Center
11:14AM 40.6081 -77.8844 67° East 109 125 8,900  Level New York Center
11:15AM 40.6164 -77.8472 74° East 109 125 8,900  Level New York Center
11:16AM 40.6292 -77.8100 66° East 109 125 8,900  Level New York Center
11:17AM 40.6314 -77.7694 86° East 104 120 8,900  Level New York Center
11:18AM 40.6378 -77.7344 76° East 104 120 9,000  Climbing New York Center
11:19AM 40.6483 -77.6944 71° East 104 120 8,900 -60 Descending New York Center
11:20AM 40.6631 -77.6575 62° Northeast 104 120 8,900  Level New York Center
11:21AM 40.6736 -77.6175 71° East 104 120 8,900  Level New York Center
11:22AM 40.6903 -77.5836 57° Northeast 104 120 8,900  Level New York Center
11:23AM 40.7028 -77.5467 66° East 109 125 8,900  Level New York Center
11:24AM 40.7175 -77.5069 64° Northeast 109 125 8,900  Level New York Center
11:25AM 40.7278 -77.4722 69° East 109 125 8,900  Level New York Center
11:26AM 40.7406 -77.4325 67° East 109 125 8,900  Level New York Center
11:27AM 40.7492 -77.3922 74° East 109 125 9,000  Climbing New York Center
11:28AM 40.7575 -77.3547 74° East 104 120 9,000 -60 Level New York Center
11:29AM 40.7681 -77.3117 72° East 104 120 8,900 -120 Descending New York Center
11:30AM 40.7828 -77.2747 62° Northeast 109 125 8,800 -60 Descending New York Center
11:31AM 40.7950 -77.2403 65° Northeast 109 125 8,800  Level New York Center
11:32AM 40.8094 -77.2061 61° Northeast 109 125 8,900  Climbing New York Center
11:33AM 40.8236 -77.1717 61° Northeast 109 125 8,900  Level New York Center
11:34AM 40.8342 -77.1344 69° East 109 125 8,900  Level New York Center
11:35AM 40.8464 -77.0969 67° East 109 125 9,000  Climbing New York Center
11:36AM 40.8592 -77.0569 67° East 109 125 8,900  Descending New York Center
11:37AM 40.8694 -77.0194 70° East 109 125 9,000  Climbing New York Center
11:38AM 40.8858 -76.9853 58° Northeast 109 125 8,900 -60 Descending New York Center
11:39AM 40.8942 -76.9422 76° East 109 125 8,900  Level New York Center
11:40AM 40.9064 -76.9103 63° Northeast 109 125 8,900  Level New York Center
11:41AM 40.9189 -76.8675 69° East 109 125 8,900  Level New York Center
11:42AM 40.9292 -76.8328 69° East 109 125 8,900  Level New York Center
11:43AM 40.9372 -76.7950 74° East 109 125 8,900  Level New York Center
11:44AM 40.9478 -76.7519 72° East 109 125 8,900  Level New York Center
11:45AM 40.9619 -76.7175 61° Northeast 109 125 8,900 -60 Level New York Center
11:46AM 40.9744 -76.6800 66° East 109 125 8,800  Descending New York Center
11:47AM 40.9931 -76.6403 58° Northeast 109 125 9,000  Climbing New York Center
11:48AM 41.0008 -76.6053 74° East 109 125 8,900 -60 Descending New York Center
11:49AM 41.0133 -76.5678 66° East 109 125 8,900  Level New York Center
11:50AM 41.0258 -76.5222 70° East 109 125 8,900  Level New York Center
11:51AM 41.0364 -76.4792 72° East 115 132 8,900  Level New York Center
11:52AM 41.0486 -76.4389 68° East 115 132 8,900  Level New York Center
11:53AM 41.0567 -76.4008 74° East 110 127 8,900  Level New York Center
11:54AM 41.0731 -76.3611 61° Northeast 110 127 8,900  Level New York Center
11:55AM 41.0836 -76.3150 73° East 110 127 8,900  Level New York Center
11:56AM 41.0939 -76.2719 72° East 110 127 8,900  Level New York Center
11:57AM 41.1064 -76.2317 68° East 110 127 8,900 -60 Level New York Center
11:58AM 41.1186 -76.1914 68° East 110 127 8,800  Descending New York Center
11:59AM 41.1372 -76.1458 62° Northeast 115 132 8,900  Climbing New York Center
12:00PM 41.1514 -76.1086 63° Northeast 115 132 8,900  Level New York Center
12:01PM 41.1658 -76.0683 65° Northeast 110 127 8,900  Level New York Center
12:02PM 41.1781 -76.0278 68° East 115 132 8,900  Level New York Center
12:03PM 41.1903 -75.9875 68° East 120 138 8,900  Level New York Center
12:04PM 41.2006 -75.9414 73° East 120 138 8,900  Level New York Center
12:05PM 41.2128 -75.8981 69° East 115 132 8,900  Level New York Center
12:06PM 41.2231 -75.8547 72° East 120 138 9,000  Climbing New York Center
12:07PM 41.2331 -75.8169 71° East 125 144 8,900 -60 Descending New York Center
12:08PM 41.2472 -75.7767 65° Northeast 125 144 8,900  Level New York Center
12:09PM 41.2594 -75.7306 71° East 120 138 9,000  Climbing New York Center
12:10PM 41.2714 -75.6956 66° East 120 138 9,000 -60 Level New York Center
12:11PM 41.2797 -75.6464 77° East 120 138 8,900 -60 Descending New York Center
12:12PM 41.2919 -75.6006 70° East 127 146 8,900  Level New York Center
12:13PM 41.3000 -75.5569 76° East 122 140 8,900  Level New York Center
12:14PM 41.3081 -75.5158 75° East 122 140 9,000  Climbing New York Center
12:15PM 41.3178 -75.4753 72° East 122 140 8,900 -60 Descending New York Center
12:16PM 41.3281 -75.4317 73° East 127 146 8,900  Level New York Center
12:17PM 41.3361 -75.3825 78° East 122 140 8,900  Level New York Center
12:19PM 41.3635 -75.3255 57° Northeast  Level FlightAware Approximate
12:26PM 41.4762 -75.0903 57° Northeast  Level FlightAware Approximate
12:26PM 41.4931 -75.0453 58° Northeast 129 148 8,900  Level Boston Center
12:27PM 41.4922 -75.0567 58° Northeast  Level FlightAware Approximate
12:27PM 41.5106 -75.0072 58° Northeast 124 143 8,900  Level Boston Center
12:28PM 41.5082 -75.0230 58° Northeast  Level FlightAware Approximate
12:28PM 41.5281 -74.9719 56° Northeast 118 136 8,900  Level Boston Center
12:29PM 41.5243 -74.9893 58° Northeast  Level FlightAware Approximate
12:29PM 41.5475 -74.9367 54° Northeast 118 136 8,900  Level Boston Center
12:30PM 41.5403 -74.9556 58° Northeast  Level FlightAware Approximate
12:30PM 41.5669 -74.9039 52° Northeast 118 136 8,900  Level Boston Center
12:31PM 41.5563 -74.9219 58° Northeast  Level FlightAware Approximate
12:31PM 41.5742 -74.8600 78° East 118 136 8,800  Level Boston Center
12:32PM 41.5792 -74.8158 81° East 118 136 8,800  Level Boston Center
12:33PM 41.5864 -74.7742 77° East 118 136 8,900  Climbing Boston Center
12:34PM 41.5936 -74.7303 78° East 118 136 8,900 -60 Level Boston Center
12:35PM 41.5964 -74.6886 85° East 118 136 8,800 -60 Descending Boston Center
12:36PM 41.6056 -74.6444 74° East 118 136 8,800  Level Boston Center
12:37PM 41.6169 -74.6033 70° East 123 142 8,900 120 Climbing Boston Center
12:38PM 41.6261 -74.5592 74° East 123 142 9,100  Climbing Boston Center
12:39PM 41.6331 -74.5150 78° East 123 142 8,900 -120 Descending Boston Center
12:40PM 41.6361 -74.4706 85° East 123 142 8,900  Level Boston Center
12:41PM 41.6411 -74.4264 81° East 123 142 8,900  Level Boston Center
12:42PM 41.6481 -74.3792 79° East 123 142 8,900  Level Boston Center
12:43PM 41.6531 -74.3322 82° East 123 142 8,900 -60 Level Boston Center
12:44PM 41.6600 -74.2881 78° East 123 142 8,800  Descending Boston Center
12:45PM 41.6628 -74.2436 85° East 123 142 8,900  Climbing Boston Center
12:46PM 41.6636 -74.1964 89° East 123 142 8,900 -60 Level Boston Center
12:47PM 41.6642 -74.1519 89° East 123 142 8,800 -60 Descending Boston Center
12:48PM 41.6650 -74.1103 88° East 123 142 8,800  Level Boston Center
12:49PM 41.6675 -74.0686 85° East 123 142 8,900  Climbing Boston Center
12:50PM 41.6683 -74.0186 89° East 123 142 8,900  Level Boston Center
12:51PM 41.6667 -73.9797 93° East 123 142 8,900 -60 Level Boston Center
12:52PM 41.6653 -73.9297 92° East 123 142 8,800 -60 Descending Boston Center
12:53PM 41.6658 -73.8933 89° East 123 142 8,800  Level Boston Center
12:54PM 41.6664 -73.8436 89° East 123 142 8,900  Climbing Boston Center
12:55PM 41.6647 -73.8017 93° East 123 142 8,900  Level Boston Center
12:56PM 41.6611 -73.7544 96° East 123 142 8,900  Level Boston Center
12:57PM 41.6617 -73.7128 89° East 123 142 8,900  Level Boston Center
12:58PM 41.6581 -73.6656 96° East 123 142 8,900  Level Boston Center
12:59PM 41.6544 -73.6264 97° East 123 142 8,900  Level Boston Center
01:00PM 41.6486 -73.5736 98° East 123 142 8,900  Level Boston Center
01:01PM 41.6428 -73.5261 99° East 118 136 8,900 -60 Level Boston Center
01:02PM 41.6392 -73.4844 97° East 123 142 8,800 -60 Descending Boston Center
01:03PM 41.6394 -73.4344 90° East 123 142 8,800  Level Boston Center
01:04PM 41.6356 -73.3956 98° East 123 142 8,900 60 Climbing Boston Center
01:05PM 41.6297 -73.3650 104° East 115 132 8,900  Level Boston Center
01:06PM 41.6258 -73.3206 97° East 121 139 8,900 -60 Level Boston Center
01:07PM 41.6261 -73.2817 89° East 117 135 8,800  Descending Boston Center
01:07PM 41.6306 -73.2594 75° East 123 142 8,900  Climbing Boston Center
01:08PM 41.6286 -73.2400 98° East 118 136 8,800  Descending Boston Center
01:08PM 41.6328 -73.2178 76° East 123 142 8,900  Climbing Boston Center
01:09PM 41.6331 -73.1900 89° East 120 138 8,800  Descending Boston Center
01:10PM 41.6333 -73.1400 90° East 118 136 8,900 60 Climbing Boston Center
01:11PM 41.6358 -73.0983 85° East 118 136 9,000  Climbing Boston Center
01:12PM 41.6567 -73.0653 50° Northeast 117 135 8,900 -60 Descending Boston Center
01:13PM 41.6736 -73.0264 60° Northeast 120 138 8,900 -180 Level Boston Center
01:14PM 41.6883 -72.9822 66° East 122 140 8,600 -360 Descending Boston Center
01:15PM 41.7136 -72.9517 42° Northeast 122 140 8,200 -480 Descending Boston Center
01:16PM 41.7408 -72.9131 47° Northeast 115 132 7,600 -540 Descending Boston Center
01:17PM 41.7556 -72.8825 57° Northeast 123 142 7,200 -360 Descending Boston Center
01:18PM 41.7767 -72.8439 54° Northeast 121 139 7,000 -120 Descending Boston Center
01:19PM 41.7953 -72.8075 56° Northeast 112 129 7,000  Level Boston Center
01:20PM 41.8081 -72.7714 65° Northeast 114 131 7,000 -240 Level Boston Center
01:21PM 41.8164 -72.7325 74° East 112 129 6,600 -420 Descending Boston Center
01:22PM 41.8269 -72.6936 70° East 113 130 6,200 -420 Descending Boston Center
01:23PM 41.8333 -72.6547 78° East 111 128 5,900 -420 Descending Boston Center
01:24PM 41.8439 -72.6128 71° East 113 130 5,400 -540 Descending Boston Center
01:25PM 41.8583 -72.5739 63° Northeast 115 132 4,900 -480 Descending Boston Center
01:26PM 41.8647 -72.5319 78° East 118 136 4,500 -540 Descending Boston Center
01:27PM 41.8731 -72.4875 76° East 121 139 3,900 -600 Descending Boston Center
01:28PM 41.8564 -72.4597 129° Southeast 93 107 3,400 -540 Descending Boston Center
01:29PM 41.8586 -72.4819 278° West 120 138 2,900 -540 Descending Boston Center